sensor_id;sensor_type;location;lat;lon;timestamp;P1;durP1;ratioP1;P2;durP2;ratioP2
44766;SDS011;30487;48.716;9.272;2023-05-07T00:01:01;4.63;;;2.50;;
44766;SDS011;30487;48.716;9.272;2023-05-07T00:03:27;4.82;;;2.70;;
44766;SDS011;30487;48.716;9.272;2023-05-07T00:05:53;5.05;;;2.42;;
44766;SDS011;30487;48.716;9.272;2023-05-07T00:08:19;3.72;;;2.13;;
44766;SDS011;30487;48.716;9.272;2023-05-07T00:10:45;3.90;;;2.30;;
44766;SDS011;30487;48.716;9.272;2023-05-07T00:13:11;4.78;;;2.38;;
44766;SDS011;30487;48.716;9.272;2023-05-07T00:15:37;4.25;;;2.15;;
44766;SDS011;30487;48.716;9.272;2023-05-07T00:18:03;6.53;;;2.50;;
44766;SDS011;30487;48.716;9.272;2023-05-07T00:20:28;5.18;;;2.10;;
44766;SDS011;30487;48.716;9.272;2023-05-07T00:22:54;5.43;;;2.40;;
44766;SDS011;30487;48.716;9.272;2023-05-07T00:25:20;4.85;;;2.20;;
44766;SDS011;30487;48.716;9.272;2023-05-07T00:27:46;5.72;;;2.70;;
44766;SDS011;30487;48.716;9.272;2023-05-07T00:30:11;6.25;;;2.42;;
44766;SDS011;30487;48.716;9.272;2023-05-07T00:32:37;4.97;;;2.30;;
44766;SDS011;30487;48.716;9.272;2023-05-07T00:35:03;4.88;;;2.42;;
44766;SDS011;30487;48.716;9.272;2023-05-07T00:37:30;9.55;;;3.38;;
44766;SDS011;30487;48.716;9.272;2023-05-07T00:39:55;9.70;;;3.22;;
44766;SDS011;30487;48.716;9.272;2023-05-07T00:42:21;6.63;;;3.28;;
44766;SDS011;30487;48.716;9.272;2023-05-07T00:44:47;5.45;;;2.95;;
44766;SDS011;30487;48.716;9.272;2023-05-07T00:47:12;5.72;;;2.65;;
44766;SDS011;30487;48.716;9.272;2023-05-07T00:49:39;8.10;;;2.80;;
44766;SDS011;30487;48.716;9.272;2023-05-07T00:52:07;5.60;;;2.63;;
44766;SDS011;30487;48.716;9.272;2023-05-07T00:54:34;3.55;;;2.42;;
44766;SDS011;30487;48.716;9.272;2023-05-07T00:57:01;5.97;;;3.10;;
44766;SDS011;30487;48.716;9.272;2023-05-07T00:59:28;4.93;;;2.47;;
44766;SDS011;30487;48.716;9.272;2023-05-07T01:01:55;5.18;;;2.67;;
44766;SDS011;30487;48.716;9.272;2023-05-07T01:04:20;9.00;;;2.50;;
44766;SDS011;30487;48.716;9.272;2023-05-07T01:06:46;3.33;;;2.17;;
44766;SDS011;30487;48.716;9.272;2023-05-07T01:09:12;6.68;;;2.53;;
44766;SDS011;30487;48.716;9.272;2023-05-07T01:11:38;5.32;;;2.60;;
44766;SDS011;30487;48.716;9.272;2023-05-07T01:14:05;5.28;;;2.45;;
44766;SDS011;30487;48.716;9.272;2023-05-07T01:16:31;5.07;;;2.60;;
44766;SDS011;30487;48.716;9.272;2023-05-07T01:18:57;3.63;;;2.25;;
44766;SDS011;30487;48.716;9.272;2023-05-07T01:21:24;4.93;;;2.50;;
44766;SDS011;30487;48.716;9.272;2023-05-07T01:23:51;4.50;;;2.42;;
44766;SDS011;30487;48.716;9.272;2023-05-07T01:26:17;4.32;;;2.50;;
44766;SDS011;30487;48.716;9.272;2023-05-07T01:28:44;3.97;;;2.38;;
44766;SDS011;30487;48.716;9.272;2023-05-07T01:31:10;4.38;;;2.50;;
44766;SDS011;30487;48.716;9.272;2023-05-07T01:33:38;4.10;;;2.60;;
44766;SDS011;30487;48.716;9.272;2023-05-07T01:36:06;3.13;;;2.25;;
44766;SDS011;30487;48.716;9.272;2023-05-07T01:38:33;3.58;;;2.30;;
44766;SDS011;30487;48.716;9.272;2023-05-07T01:41:01;5.13;;;2.30;;
44766;SDS011;30487;48.716;9.272;2023-05-07T01:43:28;3.50;;;2.13;;
44766;SDS011;30487;48.716;9.272;2023-05-07T01:45:54;6.00;;;2.28;;
44766;SDS011;30487;48.716;9.272;2023-05-07T01:48:20;3.80;;;2.30;;
44766;SDS011;30487;48.716;9.272;2023-05-07T01:50:46;4.28;;;2.35;;
44766;SDS011;30487;48.716;9.272;2023-05-07T01:53:12;4.38;;;2.40;;
44766;SDS011;30487;48.716;9.272;2023-05-07T01:55:38;5.22;;;2.50;;
44766;SDS011;30487;48.716;9.272;2023-05-07T01:58:05;3.55;;;2.33;;
44766;SDS011;30487;48.716;9.272;2023-05-07T02:00:30;3.78;;;2.50;;
44766;SDS011;30487;48.716;9.272;2023-05-07T02:02:56;3.03;;;2.30;;
44766;SDS011;30487;48.716;9.272;2023-05-07T02:05:22;6.25;;;2.30;;
44766;SDS011;30487;48.716;9.272;2023-05-07T02:07:48;4.38;;;2.55;;
44766;SDS011;30487;48.716;9.272;2023-05-07T02:10:13;3.85;;;2.28;;
44766;SDS011;30487;48.716;9.272;2023-05-07T02:12:39;6.28;;;2.30;;
44766;SDS011;30487;48.716;9.272;2023-05-07T02:15:05;4.88;;;2.15;;
44766;SDS011;30487;48.716;9.272;2023-05-07T02:17:31;3.58;;;2.20;;
44766;SDS011;30487;48.716;9.272;2023-05-07T02:19:58;5.80;;;2.20;;
44766;SDS011;30487;48.716;9.272;2023-05-07T02:22:23;3.35;;;2.03;;
44766;SDS011;30487;48.716;9.272;2023-05-07T02:24:50;5.18;;;2.28;;
44766;SDS011;30487;48.716;9.272;2023-05-07T02:27:15;4.25;;;2.53;;
44766;SDS011;30487;48.716;9.272;2023-05-07T02:29:41;3.60;;;2.35;;
44766;SDS011;30487;48.716;9.272;2023-05-07T02:32:06;3.97;;;2.35;;
44766;SDS011;30487;48.716;9.272;2023-05-07T02:34:32;5.18;;;2.53;;
44766;SDS011;30487;48.716;9.272;2023-05-07T02:36:58;5.90;;;2.88;;
44766;SDS011;30487;48.716;9.272;2023-05-07T02:39:23;6.00;;;2.75;;
44766;SDS011;30487;48.716;9.272;2023-05-07T02:41:49;5.28;;;2.50;;
44766;SDS011;30487;48.716;9.272;2023-05-07T02:44:15;4.40;;;2.40;;
44766;SDS011;30487;48.716;9.272;2023-05-07T02:46:40;5.18;;;2.47;;
44766;SDS011;30487;48.716;9.272;2023-05-07T02:49:06;6.03;;;2.67;;
44766;SDS011;30487;48.716;9.272;2023-05-07T02:51:32;5.47;;;2.70;;
44766;SDS011;30487;48.716;9.272;2023-05-07T02:53:57;5.65;;;2.72;;
44766;SDS011;30487;48.716;9.272;2023-05-07T02:56:25;7.32;;;2.60;;
44766;SDS011;30487;48.716;9.272;2023-05-07T02:58:51;4.50;;;2.47;;
44766;SDS011;30487;48.716;9.272;2023-05-07T03:01:16;3.58;;;2.33;;
44766;SDS011;30487;48.716;9.272;2023-05-07T03:03:42;5.13;;;2.05;;
44766;SDS011;30487;48.716;9.272;2023-05-07T03:06:07;3.53;;;1.92;;
44766;SDS011;30487;48.716;9.272;2023-05-07T03:08:33;2.78;;;2.00;;
44766;SDS011;30487;48.716;9.272;2023-05-07T03:10:58;3.08;;;2.10;;
44766;SDS011;30487;48.716;9.272;2023-05-07T03:13:24;4.97;;;2.38;;
44766;SDS011;30487;48.716;9.272;2023-05-07T03:15:50;3.75;;;2.25;;
44766;SDS011;30487;48.716;9.272;2023-05-07T03:18:15;5.32;;;2.28;;
44766;SDS011;30487;48.716;9.272;2023-05-07T03:20:41;5.03;;;2.40;;
44766;SDS011;30487;48.716;9.272;2023-05-07T03:23:06;6.75;;;2.47;;
44766;SDS011;30487;48.716;9.272;2023-05-07T03:25:32;3.22;;;2.20;;
44766;SDS011;30487;48.716;9.272;2023-05-07T03:27:58;4.35;;;2.25;;
44766;SDS011;30487;48.716;9.272;2023-05-07T03:30:24;5.88;;;2.67;;
44766;SDS011;30487;48.716;9.272;2023-05-07T03:32:49;5.28;;;2.47;;
44766;SDS011;30487;48.716;9.272;2023-05-07T03:35:15;3.95;;;2.42;;
44766;SDS011;30487;48.716;9.272;2023-05-07T03:37:41;5.97;;;2.67;;
44766;SDS011;30487;48.716;9.272;2023-05-07T03:40:07;4.22;;;2.40;;
44766;SDS011;30487;48.716;9.272;2023-05-07T03:42:35;4.82;;;2.65;;
44766;SDS011;30487;48.716;9.272;2023-05-07T03:45:00;4.00;;;2.55;;
44766;SDS011;30487;48.716;9.272;2023-05-07T03:47:26;5.60;;;2.83;;
44766;SDS011;30487;48.716;9.272;2023-05-07T03:49:51;6.47;;;3.00;;
44766;SDS011;30487;48.716;9.272;2023-05-07T03:52:18;4.90;;;2.67;;
44766;SDS011;30487;48.716;9.272;2023-05-07T03:54:48;5.93;;;2.95;;
44766;SDS011;30487;48.716;9.272;2023-05-07T03:57:14;6.95;;;2.97;;
44766;SDS011;30487;48.716;9.272;2023-05-07T03:59:40;8.55;;;2.88;;
44766;SDS011;30487;48.716;9.272;2023-05-07T04:02:05;4.97;;;2.90;;
44766;SDS011;30487;48.716;9.272;2023-05-07T04:04:31;5.30;;;3.05;;
44766;SDS011;30487;48.716;9.272;2023-05-07T04:06:57;5.25;;;3.00;;
44766;SDS011;30487;48.716;9.272;2023-05-07T04:09:24;5.15;;;3.08;;
44766;SDS011;30487;48.716;9.272;2023-05-07T04:11:50;6.47;;;2.80;;
44766;SDS011;30487;48.716;9.272;2023-05-07T04:14:15;6.28;;;2.85;;
44766;SDS011;30487;48.716;9.272;2023-05-07T04:16:41;5.30;;;3.10;;
44766;SDS011;30487;48.716;9.272;2023-05-07T04:19:06;5.28;;;2.65;;
44766;SDS011;30487;48.716;9.272;2023-05-07T04:21:32;5.45;;;2.92;;
44766;SDS011;30487;48.716;9.272;2023-05-07T04:23:58;4.85;;;2.40;;
44766;SDS011;30487;48.716;9.272;2023-05-07T04:26:23;5.90;;;2.70;;
44766;SDS011;30487;48.716;9.272;2023-05-07T04:28:49;6.82;;;2.88;;
44766;SDS011;30487;48.716;9.272;2023-05-07T04:31:15;7.18;;;2.60;;
44766;SDS011;30487;48.716;9.272;2023-05-07T04:33:41;3.88;;;2.35;;
44766;SDS011;30487;48.716;9.272;2023-05-07T04:36:07;7.50;;;2.40;;
44766;SDS011;30487;48.716;9.272;2023-05-07T04:38:32;4.25;;;2.50;;
44766;SDS011;30487;48.716;9.272;2023-05-07T04:41:02;6.07;;;2.50;;
44766;SDS011;30487;48.716;9.272;2023-05-07T04:43:29;4.78;;;2.60;;
44766;SDS011;30487;48.716;9.272;2023-05-07T04:45:54;5.45;;;2.42;;
44766;SDS011;30487;48.716;9.272;2023-05-07T04:48:20;4.35;;;2.70;;
44766;SDS011;30487;48.716;9.272;2023-05-07T04:50:51;4.15;;;2.55;;
44766;SDS011;30487;48.716;9.272;2023-05-07T04:53:17;4.13;;;2.50;;
44766;SDS011;30487;48.716;9.272;2023-05-07T04:55:43;5.38;;;2.60;;
44766;SDS011;30487;48.716;9.272;2023-05-07T04:58:10;3.83;;;2.60;;
44766;SDS011;30487;48.716;9.272;2023-05-07T05:00:36;6.40;;;2.30;;
44766;SDS011;30487;48.716;9.272;2023-05-07T05:03:01;4.72;;;2.80;;
44766;SDS011;30487;48.716;9.272;2023-05-07T05:05:27;5.47;;;2.05;;
44766;SDS011;30487;48.716;9.272;2023-05-07T05:07:52;5.15;;;2.55;;
44766;SDS011;30487;48.716;9.272;2023-05-07T05:10:18;4.90;;;2.13;;
44766;SDS011;30487;48.716;9.272;2023-05-07T05:12:44;4.55;;;2.47;;
44766;SDS011;30487;48.716;9.272;2023-05-07T05:15:11;4.13;;;2.30;;
44766;SDS011;30487;48.716;9.272;2023-05-07T05:17:37;4.90;;;2.33;;
44766;SDS011;30487;48.716;9.272;2023-05-07T05:20:03;6.60;;;2.20;;
44766;SDS011;30487;48.716;9.272;2023-05-07T05:22:30;7.28;;;2.30;;
44766;SDS011;30487;48.716;9.272;2023-05-07T05:24:56;4.38;;;2.28;;
44766;SDS011;30487;48.716;9.272;2023-05-07T05:27:22;5.20;;;2.42;;
44766;SDS011;30487;48.716;9.272;2023-05-07T05:29:48;3.58;;;2.15;;
44766;SDS011;30487;48.716;9.272;2023-05-07T05:32:13;6.45;;;2.70;;
44766;SDS011;30487;48.716;9.272;2023-05-07T05:34:39;3.55;;;2.08;;
44766;SDS011;30487;48.716;9.272;2023-05-07T05:37:04;3.75;;;2.20;;
44766;SDS011;30487;48.716;9.272;2023-05-07T05:39:30;3.60;;;2.28;;
44766;SDS011;30487;48.716;9.272;2023-05-07T05:41:56;5.25;;;2.08;;
44766;SDS011;30487;48.716;9.272;2023-05-07T05:44:21;5.53;;;2.13;;
44766;SDS011;30487;48.716;9.272;2023-05-07T05:46:47;4.75;;;1.98;;
44766;SDS011;30487;48.716;9.272;2023-05-07T05:49:14;3.17;;;2.00;;
44766;SDS011;30487;48.716;9.272;2023-05-07T05:51:40;3.63;;;2.38;;
44766;SDS011;30487;48.716;9.272;2023-05-07T05:54:05;3.63;;;2.15;;
44766;SDS011;30487;48.716;9.272;2023-05-07T05:56:31;5.28;;;2.50;;
44766;SDS011;30487;48.716;9.272;2023-05-07T05:58:57;6.05;;;2.40;;
44766;SDS011;30487;48.716;9.272;2023-05-07T06:01:23;3.83;;;2.20;;
44766;SDS011;30487;48.716;9.272;2023-05-07T06:03:48;6.53;;;2.47;;
44766;SDS011;30487;48.716;9.272;2023-05-07T06:06:14;4.45;;;2.80;;
44766;SDS011;30487;48.716;9.272;2023-05-07T06:08:39;8.48;;;4.15;;
44766;SDS011;30487;48.716;9.272;2023-05-07T06:11:05;3.75;;;2.40;;
44766;SDS011;30487;48.716;9.272;2023-05-07T06:13:31;4.55;;;2.35;;
44766;SDS011;30487;48.716;9.272;2023-05-07T06:15:56;4.78;;;2.50;;
44766;SDS011;30487;48.716;9.272;2023-05-07T06:18:22;4.78;;;2.50;;
44766;SDS011;30487;48.716;9.272;2023-05-07T06:20:47;5.85;;;2.55;;
44766;SDS011;30487;48.716;9.272;2023-05-07T06:23:13;3.58;;;2.30;;
44766;SDS011;30487;48.716;9.272;2023-05-07T06:25:39;3.25;;;2.50;;
44766;SDS011;30487;48.716;9.272;2023-05-07T06:28:05;4.00;;;2.33;;
44766;SDS011;30487;48.716;9.272;2023-05-07T06:30:31;3.72;;;2.22;;
44766;SDS011;30487;48.716;9.272;2023-05-07T06:32:56;4.13;;;2.13;;
44766;SDS011;30487;48.716;9.272;2023-05-07T06:35:22;4.25;;;2.10;;
44766;SDS011;30487;48.716;9.272;2023-05-07T06:37:47;3.67;;;2.38;;
44766;SDS011;30487;48.716;9.272;2023-05-07T06:40:13;16.67;;;4.22;;
44766;SDS011;30487;48.716;9.272;2023-05-07T06:42:38;7.95;;;2.75;;
44766;SDS011;30487;48.716;9.272;2023-05-07T06:45:04;6.35;;;2.70;;
44766;SDS011;30487;48.716;9.272;2023-05-07T06:47:30;7.85;;;2.70;;
44766;SDS011;30487;48.716;9.272;2023-05-07T06:49:56;3.75;;;2.50;;
44766;SDS011;30487;48.716;9.272;2023-05-07T06:52:21;4.05;;;2.55;;
44766;SDS011;30487;48.716;9.272;2023-05-07T06:54:47;3.88;;;2.35;;
44766;SDS011;30487;48.716;9.272;2023-05-07T06:57:12;4.07;;;2.22;;
44766;SDS011;30487;48.716;9.272;2023-05-07T06:59:38;5.82;;;2.70;;
44766;SDS011;30487;48.716;9.272;2023-05-07T07:02:03;4.50;;;2.47;;
44766;SDS011;30487;48.716;9.272;2023-05-07T07:04:29;5.88;;;2.33;;
44766;SDS011;30487;48.716;9.272;2023-05-07T07:06:55;6.22;;;2.83;;
44766;SDS011;30487;48.716;9.272;2023-05-07T07:09:21;5.22;;;2.42;;
44766;SDS011;30487;48.716;9.272;2023-05-07T07:11:47;4.78;;;2.47;;
44766;SDS011;30487;48.716;9.272;2023-05-07T07:14:13;5.35;;;2.45;;
44766;SDS011;30487;48.716;9.272;2023-05-07T07:16:39;5.93;;;2.67;;
44766;SDS011;30487;48.716;9.272;2023-05-07T07:19:04;10.25;;;2.80;;
44766;SDS011;30487;48.716;9.272;2023-05-07T07:21:30;5.45;;;2.45;;
44766;SDS011;30487;48.716;9.272;2023-05-07T07:23:56;7.97;;;2.33;;
44766;SDS011;30487;48.716;9.272;2023-05-07T07:26:22;4.22;;;2.38;;
44766;SDS011;30487;48.716;9.272;2023-05-07T07:28:48;4.07;;;2.40;;
44766;SDS011;30487;48.716;9.272;2023-05-07T07:31:13;5.03;;;2.25;;
44766;SDS011;30487;48.716;9.272;2023-05-07T07:33:39;4.10;;;2.10;;
44766;SDS011;30487;48.716;9.272;2023-05-07T07:36:05;3.20;;;1.85;;
44766;SDS011;30487;48.716;9.272;2023-05-07T07:38:31;3.25;;;2.00;;
44766;SDS011;30487;48.716;9.272;2023-05-07T07:40:57;6.57;;;2.22;;
44766;SDS011;30487;48.716;9.272;2023-05-07T07:43:23;4.28;;;2.45;;
44766;SDS011;30487;48.716;9.272;2023-05-07T07:45:48;5.05;;;2.22;;
44766;SDS011;30487;48.716;9.272;2023-05-07T07:48:14;6.10;;;2.35;;
44766;SDS011;30487;48.716;9.272;2023-05-07T07:50:40;6.13;;;2.80;;
44766;SDS011;30487;48.716;9.272;2023-05-07T07:53:05;4.28;;;2.35;;
44766;SDS011;30487;48.716;9.272;2023-05-07T07:55:31;4.70;;;2.50;;
44766;SDS011;30487;48.716;9.272;2023-05-07T07:57:57;8.00;;;2.20;;
44766;SDS011;30487;48.716;9.272;2023-05-07T08:00:22;3.08;;;2.17;;
44766;SDS011;30487;48.716;9.272;2023-05-07T08:02:48;3.80;;;2.13;;
44766;SDS011;30487;48.716;9.272;2023-05-07T08:05:14;5.85;;;2.40;;
44766;SDS011;30487;48.716;9.272;2023-05-07T08:07:40;7.13;;;2.63;;
44766;SDS011;30487;48.716;9.272;2023-05-07T08:10:06;3.28;;;2.17;;
44766;SDS011;30487;48.716;9.272;2023-05-07T08:12:31;4.55;;;2.65;;
44766;SDS011;30487;48.716;9.272;2023-05-07T08:14:57;6.60;;;2.42;;
44766;SDS011;30487;48.716;9.272;2023-05-07T08:17:23;4.45;;;2.17;;
44766;SDS011;30487;48.716;9.272;2023-05-07T08:19:49;3.78;;;2.10;;
44766;SDS011;30487;48.716;9.272;2023-05-07T08:22:14;3.70;;;2.03;;
44766;SDS011;30487;48.716;9.272;2023-05-07T08:24:40;5.45;;;2.28;;
44766;SDS011;30487;48.716;9.272;2023-05-07T08:27:06;4.25;;;2.42;;
44766;SDS011;30487;48.716;9.272;2023-05-07T08:29:31;5.30;;;2.15;;
44766;SDS011;30487;48.716;9.272;2023-05-07T08:31:57;3.38;;;2.00;;
44766;SDS011;30487;48.716;9.272;2023-05-07T08:34:22;4.40;;;2.28;;
44766;SDS011;30487;48.716;9.272;2023-05-07T08:36:48;5.60;;;2.30;;
44766;SDS011;30487;48.716;9.272;2023-05-07T08:39:15;5.30;;;2.50;;
44766;SDS011;30487;48.716;9.272;2023-05-07T08:41:43;6.32;;;2.60;;
44766;SDS011;30487;48.716;9.272;2023-05-07T08:44:11;5.72;;;2.50;;
44766;SDS011;30487;48.716;9.272;2023-05-07T08:46:39;5.47;;;2.40;;
44766;SDS011;30487;48.716;9.272;2023-05-07T08:49:06;4.25;;;2.35;;
44766;SDS011;30487;48.716;9.272;2023-05-07T08:51:32;5.25;;;2.45;;
44766;SDS011;30487;48.716;9.272;2023-05-07T08:53:58;4.70;;;2.10;;
44766;SDS011;30487;48.716;9.272;2023-05-07T08:56:26;4.63;;;2.15;;
44766;SDS011;30487;48.716;9.272;2023-05-07T08:58:51;3.58;;;2.13;;
44766;SDS011;30487;48.716;9.272;2023-05-07T09:01:21;3.28;;;2.20;;
44766;SDS011;30487;48.716;9.272;2023-05-07T09:03:47;3.92;;;2.13;;
44766;SDS011;30487;48.716;9.272;2023-05-07T09:06:13;4.18;;;2.10;;
44766;SDS011;30487;48.716;9.272;2023-05-07T09:08:39;3.92;;;1.98;;
44766;SDS011;30487;48.716;9.272;2023-05-07T09:11:04;6.32;;;2.30;;
44766;SDS011;30487;48.716;9.272;2023-05-07T09:13:30;5.30;;;1.98;;
44766;SDS011;30487;48.716;9.272;2023-05-07T09:15:56;4.07;;;2.30;;
44766;SDS011;30487;48.716;9.272;2023-05-07T09:18:23;8.05;;;2.00;;
44766;SDS011;30487;48.716;9.272;2023-05-07T09:20:50;3.20;;;2.00;;
44766;SDS011;30487;48.716;9.272;2023-05-07T09:23:15;3.40;;;2.05;;
44766;SDS011;30487;48.716;9.272;2023-05-07T09:25:41;3.58;;;1.55;;
44766;SDS011;30487;48.716;9.272;2023-05-07T09:28:07;2.55;;;1.55;;
44766;SDS011;30487;48.716;9.272;2023-05-07T09:30:34;4.75;;;1.80;;
44766;SDS011;30487;48.716;9.272;2023-05-07T09:33:01;5.22;;;2.13;;
44766;SDS011;30487;48.716;9.272;2023-05-07T09:35:27;3.42;;;1.85;;
44766;SDS011;30487;48.716;9.272;2023-05-07T09:37:53;3.47;;;2.03;;
44766;SDS011;30487;48.716;9.272;2023-05-07T09:40:24;5.25;;;1.77;;
44766;SDS011;30487;48.716;9.272;2023-05-07T09:42:51;3.10;;;1.63;;
44766;SDS011;30487;48.716;9.272;2023-05-07T09:45:25;4.72;;;1.90;;
44766;SDS011;30487;48.716;9.272;2023-05-07T09:47:56;3.20;;;1.73;;
44766;SDS011;30487;48.716;9.272;2023-05-07T09:50:27;6.28;;;2.00;;
44766;SDS011;30487;48.716;9.272;2023-05-07T09:52:56;3.05;;;1.60;;
44766;SDS011;30487;48.716;9.272;2023-05-07T09:55:22;4.65;;;1.73;;
44766;SDS011;30487;48.716;9.272;2023-05-07T09:57:51;3.33;;;1.70;;
44766;SDS011;30487;48.716;9.272;2023-05-07T10:00:21;8.88;;;2.08;;
44766;SDS011;30487;48.716;9.272;2023-05-07T10:02:48;3.85;;;1.58;;
44766;SDS011;30487;48.716;9.272;2023-05-07T10:05:16;5.35;;;1.80;;
44766;SDS011;30487;48.716;9.272;2023-05-07T10:07:43;3.05;;;1.77;;
44766;SDS011;30487;48.716;9.272;2023-05-07T10:10:09;5.72;;;1.80;;
44766;SDS011;30487;48.716;9.272;2023-05-07T10:12:36;4.13;;;1.85;;
44766;SDS011;30487;48.716;9.272;2023-05-07T10:15:10;2.60;;;1.85;;
44766;SDS011;30487;48.716;9.272;2023-05-07T10:17:40;3.05;;;1.48;;
44766;SDS011;30487;48.716;9.272;2023-05-07T10:20:06;3.80;;;1.83;;
44766;SDS011;30487;48.716;9.272;2023-05-07T10:22:33;2.22;;;1.50;;
44766;SDS011;30487;48.716;9.272;2023-05-07T10:25:18;4.03;;;1.50;;
44766;SDS011;30487;48.716;9.272;2023-05-07T10:27:51;3.90;;;1.40;;
44766;SDS011;30487;48.716;9.272;2023-05-07T10:33:01;2.95;;;1.38;;
44766;SDS011;30487;48.716;9.272;2023-05-07T10:35:31;3.63;;;1.80;;
44766;SDS011;30487;48.716;9.272;2023-05-07T10:38:03;2.38;;;1.50;;
44766;SDS011;30487;48.716;9.272;2023-05-07T10:40:30;2.95;;;1.80;;
44766;SDS011;30487;48.716;9.272;2023-05-07T10:42:57;4.25;;;1.63;;
44766;SDS011;30487;48.716;9.272;2023-05-07T10:45:27;2.50;;;1.60;;
44766;SDS011;30487;48.716;9.272;2023-05-07T10:50:36;2.47;;;1.40;;
44766;SDS011;30487;48.716;9.272;2023-05-07T10:55:47;4.30;;;1.80;;
44766;SDS011;30487;48.716;9.272;2023-05-07T11:00:46;3.35;;;1.60;;
44766;SDS011;30487;48.716;9.272;2023-05-07T11:03:13;3.97;;;1.83;;
44766;SDS011;30487;48.716;9.272;2023-05-07T11:05:40;3.03;;;1.60;;
44766;SDS011;30487;48.716;9.272;2023-05-07T11:08:07;5.13;;;1.77;;
44766;SDS011;30487;48.716;9.272;2023-05-07T11:16:20;3.00;;;1.80;;
44766;SDS011;30487;48.716;9.272;2023-05-07T11:18:48;3.28;;;1.70;;
44766;SDS011;30487;48.716;9.272;2023-05-07T11:21:34;3.92;;;1.50;;
44766;SDS011;30487;48.716;9.272;2023-05-07T11:24:01;2.13;;;1.52;;
44766;SDS011;30487;48.716;9.272;2023-05-07T11:26:31;2.33;;;1.30;;
44766;SDS011;30487;48.716;9.272;2023-05-07T11:29:13;2.55;;;1.73;;
44766;SDS011;30487;48.716;9.272;2023-05-07T11:31:40;3.08;;;1.80;;
44766;SDS011;30487;48.716;9.272;2023-05-07T11:34:06;2.65;;;1.63;;
44766;SDS011;30487;48.716;9.272;2023-05-07T11:36:32;4.60;;;1.60;;
44766;SDS011;30487;48.716;9.272;2023-05-07T11:38:58;1.85;;;1.40;;
44766;SDS011;30487;48.716;9.272;2023-05-07T11:41:34;3.95;;;1.70;;
44766;SDS011;30487;48.716;9.272;2023-05-07T11:44:01;4.05;;;1.73;;
44766;SDS011;30487;48.716;9.272;2023-05-07T11:46:27;2.95;;;1.48;;
44766;SDS011;30487;48.716;9.272;2023-05-07T11:48:53;3.55;;;1.77;;
44766;SDS011;30487;48.716;9.272;2023-05-07T11:51:20;3.92;;;1.70;;
44766;SDS011;30487;48.716;9.272;2023-05-07T11:53:46;4.30;;;1.90;;
44766;SDS011;30487;48.716;9.272;2023-05-07T11:56:13;5.97;;;1.92;;
44766;SDS011;30487;48.716;9.272;2023-05-07T11:58:39;2.38;;;1.67;;
44766;SDS011;30487;48.716;9.272;2023-05-07T12:01:09;7.18;;;4.70;;
44766;SDS011;30487;48.716;9.272;2023-05-07T12:03:37;7.40;;;2.97;;
44766;SDS011;30487;48.716;9.272;2023-05-07T12:06:07;4.55;;;2.08;;
44766;SDS011;30487;48.716;9.272;2023-05-07T12:08:35;5.38;;;2.70;;
44766;SDS011;30487;48.716;9.272;2023-05-07T12:11:02;3.47;;;2.00;;
44766;SDS011;30487;48.716;9.272;2023-05-07T12:13:28;3.40;;;1.65;;
44766;SDS011;30487;48.716;9.272;2023-05-07T12:15:54;1.88;;;1.33;;
44766;SDS011;30487;48.716;9.272;2023-05-07T12:18:21;3.30;;;1.48;;
44766;SDS011;30487;48.716;9.272;2023-05-07T12:20:48;2.17;;;1.42;;
44766;SDS011;30487;48.716;9.272;2023-05-07T12:23:14;3.80;;;1.42;;
44766;SDS011;30487;48.716;9.272;2023-05-07T12:25:41;3.20;;;1.60;;
44766;SDS011;30487;48.716;9.272;2023-05-07T12:28:13;7.45;;;2.00;;
44766;SDS011;30487;48.716;9.272;2023-05-07T12:30:40;2.85;;;1.60;;
44766;SDS011;30487;48.716;9.272;2023-05-07T12:33:07;3.25;;;1.63;;
44766;SDS011;30487;48.716;9.272;2023-05-07T12:35:37;2.83;;;1.48;;
44766;SDS011;30487;48.716;9.272;2023-05-07T12:40:40;2.30;;;1.30;;
44766;SDS011;30487;48.716;9.272;2023-05-07T12:43:07;1.92;;;1.25;;
44766;SDS011;30487;48.716;9.272;2023-05-07T12:45:39;1.50;;;1.20;;
44766;SDS011;30487;48.716;9.272;2023-05-07T12:50:32;1.80;;;0.95;;
44766;SDS011;30487;48.716;9.272;2023-05-07T12:52:58;2.70;;;1.42;;
44766;SDS011;30487;48.716;9.272;2023-05-07T12:55:24;2.42;;;1.30;;
44766;SDS011;30487;48.716;9.272;2023-05-07T12:57:50;3.50;;;1.50;;
44766;SDS011;30487;48.716;9.272;2023-05-07T13:00:18;4.63;;;1.45;;
44766;SDS011;30487;48.716;9.272;2023-05-07T13:03:03;3.13;;;1.48;;
44766;SDS011;30487;48.716;9.272;2023-05-07T13:05:29;3.88;;;1.25;;
44766;SDS011;30487;48.716;9.272;2023-05-07T13:07:56;2.63;;;1.25;;
44766;SDS011;30487;48.716;9.272;2023-05-07T13:10:22;3.53;;;1.20;;
44766;SDS011;30487;48.716;9.272;2023-05-07T13:12:48;3.50;;;1.15;;
44766;SDS011;30487;48.716;9.272;2023-05-07T13:15:14;5.70;;;1.20;;
44766;SDS011;30487;48.716;9.272;2023-05-07T13:17:40;2.22;;;1.17;;
44766;SDS011;30487;48.716;9.272;2023-05-07T13:20:06;5.22;;;1.10;;
44766;SDS011;30487;48.716;9.272;2023-05-07T13:22:33;4.50;;;1.40;;
44766;SDS011;30487;48.716;9.272;2023-05-07T13:24:58;3.50;;;1.00;;
44766;SDS011;30487;48.716;9.272;2023-05-07T13:27:24;3.03;;;1.27;;
44766;SDS011;30487;48.716;9.272;2023-05-07T13:29:50;4.30;;;1.30;;
44766;SDS011;30487;48.716;9.272;2023-05-07T13:32:16;3.30;;;1.35;;
44766;SDS011;30487;48.716;9.272;2023-05-07T13:34:42;3.63;;;1.30;;
44766;SDS011;30487;48.716;9.272;2023-05-07T13:37:07;5.82;;;1.50;;
44766;SDS011;30487;48.716;9.272;2023-05-07T13:39:33;3.60;;;1.52;;
44766;SDS011;30487;48.716;9.272;2023-05-07T13:41:58;4.63;;;1.30;;
44766;SDS011;30487;48.716;9.272;2023-05-07T13:44:24;3.35;;;1.20;;
44766;SDS011;30487;48.716;9.272;2023-05-07T13:46:50;2.25;;;1.10;;
44766;SDS011;30487;48.716;9.272;2023-05-07T13:49:16;3.60;;;1.00;;
44766;SDS011;30487;48.716;9.272;2023-05-07T13:51:41;2.15;;;1.13;;
44766;SDS011;30487;48.716;9.272;2023-05-07T13:54:07;5.40;;;1.10;;
44766;SDS011;30487;48.716;9.272;2023-05-07T13:56:33;2.47;;;1.10;;
44766;SDS011;30487;48.716;9.272;2023-05-07T13:58:58;4.88;;;1.20;;
44766;SDS011;30487;48.716;9.272;2023-05-07T14:01:24;5.60;;;1.20;;
44766;SDS011;30487;48.716;9.272;2023-05-07T14:03:49;4.25;;;1.20;;
44766;SDS011;30487;48.716;9.272;2023-05-07T14:06:15;2.65;;;1.10;;
44766;SDS011;30487;48.716;9.272;2023-05-07T14:08:41;6.55;;;1.40;;
44766;SDS011;30487;48.716;9.272;2023-05-07T14:11:06;3.75;;;1.65;;
44766;SDS011;30487;48.716;9.272;2023-05-07T14:13:32;3.15;;;1.23;;
44766;SDS011;30487;48.716;9.272;2023-05-07T14:15:59;4.20;;;1.73;;
44766;SDS011;30487;48.716;9.272;2023-05-07T14:18:25;5.20;;;1.40;;
44766;SDS011;30487;48.716;9.272;2023-05-07T14:20:51;4.55;;;1.50;;
44766;SDS011;30487;48.716;9.272;2023-05-07T14:23:16;6.78;;;1.65;;
44766;SDS011;30487;48.716;9.272;2023-05-07T14:25:44;3.30;;;1.42;;
44766;SDS011;30487;48.716;9.272;2023-05-07T14:28:12;3.03;;;1.42;;
44766;SDS011;30487;48.716;9.272;2023-05-07T14:30:38;3.58;;;1.35;;
44766;SDS011;30487;48.716;9.272;2023-05-07T14:33:03;6.32;;;1.50;;
44766;SDS011;30487;48.716;9.272;2023-05-07T14:35:29;2.38;;;1.20;;
44766;SDS011;30487;48.716;9.272;2023-05-07T14:37:54;3.35;;;1.65;;
44766;SDS011;30487;48.716;9.272;2023-05-07T14:40:20;5.20;;;1.35;;
44766;SDS011;30487;48.716;9.272;2023-05-07T14:42:46;4.28;;;1.50;;
44766;SDS011;30487;48.716;9.272;2023-05-07T14:45:11;2.45;;;1.42;;
44766;SDS011;30487;48.716;9.272;2023-05-07T14:47:37;5.10;;;1.52;;
44766;SDS011;30487;48.716;9.272;2023-05-07T14:50:03;4.97;;;1.70;;
44766;SDS011;30487;48.716;9.272;2023-05-07T14:52:29;4.45;;;1.50;;
44766;SDS011;30487;48.716;9.272;2023-05-07T14:54:55;8.13;;;1.83;;
44766;SDS011;30487;48.716;9.272;2023-05-07T14:57:20;2.58;;;1.63;;
44766;SDS011;30487;48.716;9.272;2023-05-07T14:59:46;4.82;;;1.50;;
44766;SDS011;30487;48.716;9.272;2023-05-07T15:02:12;3.78;;;1.50;;
44766;SDS011;30487;48.716;9.272;2023-05-07T15:04:40;3.33;;;1.42;;